Rindge, New Hampshire
Current Conditions -  °F | °C
As of 2:52 PM on Friday 21 Nov 2014 (Local Time) from KAFN Reporting Station
Scattered Clouds Scattered Clouds  
Wind Chill: 16°   Ceiling: Unl
Heat Index: 27°   Visibility: 10mi
Dew Point:   Wind: 13mph
Humidity: 41%   Direction: 290°WNW
Pressure: 30.17"   Gusts: 21mph
Location:  42.75°N, 72.01°W
Report Text: KAFN 211952Z AUTO 29011G18KT 10SM SCT048 M03/M14 A3017 RMK AO2 SLP236 T10281144
Loading
Personal Weather Stations






























Interactive Weather Map New forecast layout! Learn more

10-Day Weather Forecast

Advertisements
Track Severe Weather on mobile